sensor_id;sensor_type;location;lat;lon;timestamp;temperature;humidity
11647;DHT22;5880;52.342;9.662;2022-09-29T00:00:27;12.20;68.50
11647;DHT22;5880;52.342;9.662;2022-09-29T00:02:53;12.10;68.50
11647;DHT22;5880;52.342;9.662;2022-09-29T00:05:19;12.00;68.40
11647;DHT22;5880;52.342;9.662;2022-09-29T00:07:45;12.10;68.60
11647;DHT22;5880;52.342;9.662;2022-09-29T00:10:11;12.00;68.50
11647;DHT22;5880;52.342;9.662;2022-09-29T00:12:37;12.00;68.40
11647;DHT22;5880;52.342;9.662;2022-09-29T00:15:04;12.00;68.50
11647;DHT22;5880;52.342;9.662;2022-09-29T00:17:30;11.90;68.50
11647;DHT22;5880;52.342;9.662;2022-09-29T00:19:55;11.90;68.40
11647;DHT22;5880;52.342;9.662;2022-09-29T00:22:21;11.80;68.30
11647;DHT22;5880;52.342;9.662;2022-09-29T00:24:47;11.80;68.50
11647;DHT22;5880;52.342;9.662;2022-09-29T00:27:15;11.80;68.60
11647;DHT22;5880;52.342;9.662;2022-09-29T00:29:41;11.80;68.50
11647;DHT22;5880;52.342;9.662;2022-09-29T00:32:07;11.70;68.50
11647;DHT22;5880;52.342;9.662;2022-09-29T00:34:33;11.70;68.50
11647;DHT22;5880;52.342;9.662;2022-09-29T00:36:58;11.70;68.50
11647;DHT22;5880;52.342;9.662;2022-09-29T00:39:24;11.70;68.40
11647;DHT22;5880;52.342;9.662;2022-09-29T00:41:50;11.60;68.30
11647;DHT22;5880;52.342;9.662;2022-09-29T00:47:01;11.50;68.20
11647;DHT22;5880;52.342;9.662;2022-09-29T00:49:46;11.60;68.30
11647;DHT22;5880;52.342;9.662;2022-09-29T00:52:23;11.50;69.00
11647;DHT22;5880;52.342;9.662;2022-09-29T00:55:01;11.50;68.20
11647;DHT22;5880;52.342;9.662;2022-09-29T00:57:54;11.40;68.20
11647;DHT22;5880;52.342;9.662;2022-09-29T01:00:24;11.40;68.10
11647;DHT22;5880;52.342;9.662;2022-09-29T01:03:14;11.40;68.10
11647;DHT22;5880;52.342;9.662;2022-09-29T01:05:46;11.40;68.10
11647;DHT22;5880;52.342;9.662;2022-09-29T01:08:31;11.30;68.10
11647;DHT22;5880;52.342;9.662;2022-09-29T01:11:04;11.30;68.10
11647;DHT22;5880;52.342;9.662;2022-09-29T01:13:32;11.30;68.10
11647;DHT22;5880;52.342;9.662;2022-09-29T01:15:59;11.20;67.90
11647;DHT22;5880;52.342;9.662;2022-09-29T01:18:25;11.20;68.00
11647;DHT22;5880;52.342;9.662;2022-09-29T01:21:16;11.20;68.00
11647;DHT22;5880;52.342;9.662;2022-09-29T01:29:54;11.10;68.20
11647;DHT22;5880;52.342;9.662;2022-09-29T01:32:39;11.10;68.20
11647;DHT22;5880;52.342;9.662;2022-09-29T01:43:26;11.00;68.10
11647;DHT22;5880;52.342;9.662;2022-09-29T01:46:06;11.00;68.10
11647;DHT22;5880;52.342;9.662;2022-09-29T01:48:45;11.00;68.20
11647;DHT22;5880;52.342;9.662;2022-09-29T01:51:19;11.00;68.20
11647;DHT22;5880;52.342;9.662;2022-09-29T01:53:52;11.00;68.20
11647;DHT22;5880;52.342;9.662;2022-09-29T01:59:08;10.90;68.20
11647;DHT22;5880;52.342;9.662;2022-09-29T02:01:42;10.90;68.30
11647;DHT22;5880;52.342;9.662;2022-09-29T02:04:18;10.90;68.30
11647;DHT22;5880;52.342;9.662;2022-09-29T02:07:00;10.90;68.30
11647;DHT22;5880;52.342;9.662;2022-09-29T02:09:37;10.90;68.40
11647;DHT22;5880;52.342;9.662;2022-09-29T02:12:07;10.90;68.30
11647;DHT22;5880;52.342;9.662;2022-09-29T02:14:42;10.90;68.40
11647;DHT22;5880;52.342;9.662;2022-09-29T02:17:15;10.90;68.60
11647;DHT22;5880;52.342;9.662;2022-09-29T02:19:47;10.90;68.60
11647;DHT22;5880;52.342;9.662;2022-09-29T02:22:17;10.90;68.60
11647;DHT22;5880;52.342;9.662;2022-09-29T02:24:44;10.90;68.50
11647;DHT22;5880;52.342;9.662;2022-09-29T02:27:10;11.00;68.50
11647;DHT22;5880;52.342;9.662;2022-09-29T02:29:37;10.90;68.40
11647;DHT22;5880;52.342;9.662;2022-09-29T02:32:05;10.90;69.10
11647;DHT22;5880;52.342;9.662;2022-09-29T02:34:36;10.90;68.20
11647;DHT22;5880;52.342;9.662;2022-09-29T02:37:26;10.90;68.10
11647;DHT22;5880;52.342;9.662;2022-09-29T02:40:26;10.90;68.10
11647;DHT22;5880;52.342;9.662;2022-09-29T02:46:03;10.80;67.80
11647;DHT22;5880;52.342;9.662;2022-09-29T02:51:45;10.80;67.70
11647;DHT22;5880;52.342;9.662;2022-09-29T02:57:40;10.70;67.80
11647;DHT22;5880;52.342;9.662;2022-09-29T03:00:29;10.60;67.70
11647;DHT22;5880;52.342;9.662;2022-09-29T03:02:55;10.60;67.70
11647;DHT22;5880;52.342;9.662;2022-09-29T03:05:21;10.60;67.70
11647;DHT22;5880;52.342;9.662;2022-09-29T03:07:48;10.50;67.80
11647;DHT22;5880;52.342;9.662;2022-09-29T03:10:15;10.50;67.90
11647;DHT22;5880;52.342;9.662;2022-09-29T03:12:42;10.50;67.90
11647;DHT22;5880;52.342;9.662;2022-09-29T03:15:08;10.40;67.80
11647;DHT22;5880;52.342;9.662;2022-09-29T03:17:36;10.40;67.70
11647;DHT22;5880;52.342;9.662;2022-09-29T03:20:03;10.40;67.70
11647;DHT22;5880;52.342;9.662;2022-09-29T03:22:29;10.40;67.80
11647;DHT22;5880;52.342;9.662;2022-09-29T03:24:55;10.30;67.90
11647;DHT22;5880;52.342;9.662;2022-09-29T03:27:21;10.30;67.90
11647;DHT22;5880;52.342;9.662;2022-09-29T03:29:47;10.30;67.90
11647;DHT22;5880;52.342;9.662;2022-09-29T03:32:15;10.30;68.00
11647;DHT22;5880;52.342;9.662;2022-09-29T03:34:41;10.20;67.90
11647;DHT22;5880;52.342;9.662;2022-09-29T03:37:06;10.30;68.00
11647;DHT22;5880;52.342;9.662;2022-09-29T03:39:32;10.20;67.90
11647;DHT22;5880;52.342;9.662;2022-09-29T03:41:58;10.20;68.00
11647;DHT22;5880;52.342;9.662;2022-09-29T03:44:23;10.20;68.20
11647;DHT22;5880;52.342;9.662;2022-09-29T03:46:49;10.20;68.30
11647;DHT22;5880;52.342;9.662;2022-09-29T03:49:15;10.30;68.40
11647;DHT22;5880;52.342;9.662;2022-09-29T03:51:41;10.20;68.40
11647;DHT22;5880;52.342;9.662;2022-09-29T03:54:07;10.20;68.40
11647;DHT22;5880;52.342;9.662;2022-09-29T03:56:33;10.20;68.50
11647;DHT22;5880;52.342;9.662;2022-09-29T03:58:59;10.30;68.70
11647;DHT22;5880;52.342;9.662;2022-09-29T04:01:25;10.30;68.80
11647;DHT22;5880;52.342;9.662;2022-09-29T04:03:50;10.30;68.90
11647;DHT22;5880;52.342;9.662;2022-09-29T04:06:16;10.30;69.00
11647;DHT22;5880;52.342;9.662;2022-09-29T04:08:42;10.30;68.90
11647;DHT22;5880;52.342;9.662;2022-09-29T04:11:08;10.30;68.90
11647;DHT22;5880;52.342;9.662;2022-09-29T04:13:33;10.40;68.80
11647;DHT22;5880;52.342;9.662;2022-09-29T04:16:01;10.40;68.70
11647;DHT22;5880;52.342;9.662;2022-09-29T04:18:28;10.40;68.60
11647;DHT22;5880;52.342;9.662;2022-09-29T04:20:54;10.40;68.50
11647;DHT22;5880;52.342;9.662;2022-09-29T04:23:28;10.40;68.40
11647;DHT22;5880;52.342;9.662;2022-09-29T04:25:55;10.40;68.40
11647;DHT22;5880;52.342;9.662;2022-09-29T04:28:24;10.40;68.30
11647;DHT22;5880;52.342;9.662;2022-09-29T04:30:50;10.40;68.30
11647;DHT22;5880;52.342;9.662;2022-09-29T04:33:16;10.40;68.30
11647;DHT22;5880;52.342;9.662;2022-09-29T04:35:42;10.40;68.30
11647;DHT22;5880;52.342;9.662;2022-09-29T04:38:08;10.40;68.30
11647;DHT22;5880;52.342;9.662;2022-09-29T04:40:36;10.40;68.30
11647;DHT22;5880;52.342;9.662;2022-09-29T04:43:02;10.40;68.30
11647;DHT22;5880;52.342;9.662;2022-09-29T04:45:29;10.30;68.30
11647;DHT22;5880;52.342;9.662;2022-09-29T04:47:55;10.40;68.30
11647;DHT22;5880;52.342;9.662;2022-09-29T04:50:21;10.30;68.20
11647;DHT22;5880;52.342;9.662;2022-09-29T04:52:47;10.30;68.20
11647;DHT22;5880;52.342;9.662;2022-09-29T04:55:13;10.30;68.20
11647;DHT22;5880;52.342;9.662;2022-09-29T04:57:41;10.30;68.10
11647;DHT22;5880;52.342;9.662;2022-09-29T05:00:09;10.30;68.10
11647;DHT22;5880;52.342;9.662;2022-09-29T05:02:36;10.20;68.00
11647;DHT22;5880;52.342;9.662;2022-09-29T05:05:03;10.20;68.00
11647;DHT22;5880;52.342;9.662;2022-09-29T05:07:33;10.20;68.10
11647;DHT22;5880;52.342;9.662;2022-09-29T05:09:59;10.20;68.00
11647;DHT22;5880;52.342;9.662;2022-09-29T05:12:25;10.20;68.10
11647;DHT22;5880;52.342;9.662;2022-09-29T05:14:51;10.20;68.30
11647;DHT22;5880;52.342;9.662;2022-09-29T05:17:17;10.20;68.40
11647;DHT22;5880;52.342;9.662;2022-09-29T05:19:43;10.10;68.40
11647;DHT22;5880;52.342;9.662;2022-09-29T05:22:08;10.10;68.40
11647;DHT22;5880;52.342;9.662;2022-09-29T05:24:34;10.10;68.30
11647;DHT22;5880;52.342;9.662;2022-09-29T05:27:00;10.10;68.30
11647;DHT22;5880;52.342;9.662;2022-09-29T05:29:26;10.20;68.20
11647;DHT22;5880;52.342;9.662;2022-09-29T05:31:51;10.10;68.30
11647;DHT22;5880;52.342;9.662;2022-09-29T05:34:17;10.10;68.30
11647;DHT22;5880;52.342;9.662;2022-09-29T05:36:43;10.10;68.40
11647;DHT22;5880;52.342;9.662;2022-09-29T05:39:10;10.10;68.30
11647;DHT22;5880;52.342;9.662;2022-09-29T05:41:36;10.10;68.30
11647;DHT22;5880;52.342;9.662;2022-09-29T05:44:01;10.10;68.40
11647;DHT22;5880;52.342;9.662;2022-09-29T05:46:28;10.10;68.40
11647;DHT22;5880;52.342;9.662;2022-09-29T05:48:54;10.10;68.50
11647;DHT22;5880;52.342;9.662;2022-09-29T05:51:22;10.10;68.50
11647;DHT22;5880;52.342;9.662;2022-09-29T05:53:51;10.10;68.60
11647;DHT22;5880;52.342;9.662;2022-09-29T05:56:22;10.10;68.60
11647;DHT22;5880;52.342;9.662;2022-09-29T05:58:51;10.10;68.70
11647;DHT22;5880;52.342;9.662;2022-09-29T06:01:23;10.10;68.70
11647;DHT22;5880;52.342;9.662;2022-09-29T06:03:51;10.10;68.80
11647;DHT22;5880;52.342;9.662;2022-09-29T06:06:23;10.10;68.70
11647;DHT22;5880;52.342;9.662;2022-09-29T06:08:51;10.20;68.80
11647;DHT22;5880;52.342;9.662;2022-09-29T06:11:19;10.10;68.90
11647;DHT22;5880;52.342;9.662;2022-09-29T06:13:49;10.10;69.00
11647;DHT22;5880;52.342;9.662;2022-09-29T06:16:18;10.20;69.10
11647;DHT22;5880;52.342;9.662;2022-09-29T06:18:46;10.20;69.30
11647;DHT22;5880;52.342;9.662;2022-09-29T06:21:16;10.20;69.30
11647;DHT22;5880;52.342;9.662;2022-09-29T06:23:46;10.20;69.50
11647;DHT22;5880;52.342;9.662;2022-09-29T06:26:13;10.30;69.70
11647;DHT22;5880;52.342;9.662;2022-09-29T06:28:40;10.30;69.80
11647;DHT22;5880;52.342;9.662;2022-09-29T06:31:17;10.40;69.90
11647;DHT22;5880;52.342;9.662;2022-09-29T06:33:44;10.50;70.20
11647;DHT22;5880;52.342;9.662;2022-09-29T06:36:19;10.50;70.00
11647;DHT22;5880;52.342;9.662;2022-09-29T06:39:12;10.60;70.20
11647;DHT22;5880;52.342;9.662;2022-09-29T06:41:40;10.70;70.30
11647;DHT22;5880;52.342;9.662;2022-09-29T06:44:09;10.70;70.20
11647;DHT22;5880;52.342;9.662;2022-09-29T06:46:34;10.70;70.30
11647;DHT22;5880;52.342;9.662;2022-09-29T06:49:00;10.80;70.40
11647;DHT22;5880;52.342;9.662;2022-09-29T06:51:26;10.90;70.50
11647;DHT22;5880;52.342;9.662;2022-09-29T06:53:52;10.90;70.50
11647;DHT22;5880;52.342;9.662;2022-09-29T06:56:18;11.00;70.50
11647;DHT22;5880;52.342;9.662;2022-09-29T06:58:44;11.10;70.60
11647;DHT22;5880;52.342;9.662;2022-09-29T07:01:11;11.10;70.70
11647;DHT22;5880;52.342;9.662;2022-09-29T07:03:38;11.20;70.80
11647;DHT22;5880;52.342;9.662;2022-09-29T07:06:05;11.30;71.60
11647;DHT22;5880;52.342;9.662;2022-09-29T07:08:32;11.30;70.80
11647;DHT22;5880;52.342;9.662;2022-09-29T07:11:01;11.40;70.80
11647;DHT22;5880;52.342;9.662;2022-09-29T07:13:28;11.50;70.90
11647;DHT22;5880;52.342;9.662;2022-09-29T07:15:54;11.50;71.00
11647;DHT22;5880;52.342;9.662;2022-09-29T07:18:20;11.60;71.00
11647;DHT22;5880;52.342;9.662;2022-09-29T07:20:46;11.70;71.00
11647;DHT22;5880;52.342;9.662;2022-09-29T07:23:11;11.70;71.00
11647;DHT22;5880;52.342;9.662;2022-09-29T07:25:38;11.80;70.90
11647;DHT22;5880;52.342;9.662;2022-09-29T07:28:04;11.80;70.90
11647;DHT22;5880;52.342;9.662;2022-09-29T07:30:29;11.90;71.10
11647;DHT22;5880;52.342;9.662;2022-09-29T07:32:56;12.00;71.00
11647;DHT22;5880;52.342;9.662;2022-09-29T07:35:23;12.10;71.20
11647;DHT22;5880;52.342;9.662;2022-09-29T07:37:52;12.10;71.30
11647;DHT22;5880;52.342;9.662;2022-09-29T07:40:20;12.20;71.60
11647;DHT22;5880;52.342;9.662;2022-09-29T07:42:47;12.30;71.60
11647;DHT22;5880;52.342;9.662;2022-09-29T07:45:16;12.40;71.60
11647;DHT22;5880;52.342;9.662;2022-09-29T07:47:42;12.40;71.80
11647;DHT22;5880;52.342;9.662;2022-09-29T07:50:08;12.50;71.80
11647;DHT22;5880;52.342;9.662;2022-09-29T07:52:34;12.60;71.70
11647;DHT22;5880;52.342;9.662;2022-09-29T07:55:00;12.70;71.80
11647;DHT22;5880;52.342;9.662;2022-09-29T07:57:26;12.80;71.60
11647;DHT22;5880;52.342;9.662;2022-09-29T07:59:52;12.90;71.60
11647;DHT22;5880;52.342;9.662;2022-09-29T08:02:22;13.10;71.60
11647;DHT22;5880;52.342;9.662;2022-09-29T08:04:47;13.00;71.40
11647;DHT22;5880;52.342;9.662;2022-09-29T08:07:13;13.10;71.50
11647;DHT22;5880;52.342;9.662;2022-09-29T08:09:39;13.10;71.50
11647;DHT22;5880;52.342;9.662;2022-09-29T08:12:04;13.20;71.40
11647;DHT22;5880;52.342;9.662;2022-09-29T08:14:30;13.20;71.30
11647;DHT22;5880;52.342;9.662;2022-09-29T08:16:55;13.30;71.30
11647;DHT22;5880;52.342;9.662;2022-09-29T08:19:21;13.30;71.20
11647;DHT22;5880;52.342;9.662;2022-09-29T08:21:47;13.40;71.20
11647;DHT22;5880;52.342;9.662;2022-09-29T08:24:14;13.40;71.20
11647;DHT22;5880;52.342;9.662;2022-09-29T08:26:42;13.50;71.20
11647;DHT22;5880;52.342;9.662;2022-09-29T08:29:08;13.50;71.10
11647;DHT22;5880;52.342;9.662;2022-09-29T08:31:34;13.60;71.10
11647;DHT22;5880;52.342;9.662;2022-09-29T08:34:02;13.60;71.10
11647;DHT22;5880;52.342;9.662;2022-09-29T08:36:27;13.60;71.10
11647;DHT22;5880;52.342;9.662;2022-09-29T08:38:55;13.70;71.20
11647;DHT22;5880;52.342;9.662;2022-09-29T08:47:17;13.80;71.00
11647;DHT22;5880;52.342;9.662;2022-09-29T08:49:56;13.90;71.30
11647;DHT22;5880;52.342;9.662;2022-09-29T08:52:36;13.90;71.30
11647;DHT22;5880;52.342;9.662;2022-09-29T08:57:44;14.00;70.80
11647;DHT22;5880;52.342;9.662;2022-09-29T09:00:26;14.10;70.90
11647;DHT22;5880;52.342;9.662;2022-09-29T09:06:07;14.20;70.40
11647;DHT22;5880;52.342;9.662;2022-09-29T09:12:19;14.20;70.10
11647;DHT22;5880;52.342;9.662;2022-09-29T09:15:03;14.30;70.50
11647;DHT22;5880;52.342;9.662;2022-09-29T09:18:08;14.30;70.40
11647;DHT22;5880;52.342;9.662;2022-09-29T09:21:40;14.30;70.50
11647;DHT22;5880;52.342;9.662;2022-09-29T09:26:41;14.50;70.80
11647;DHT22;5880;52.342;9.662;2022-09-29T09:29:26;14.50;70.80
11647;DHT22;5880;52.342;9.662;2022-09-29T09:32:15;14.60;70.20
11647;DHT22;5880;52.342;9.662;2022-09-29T09:37:32;14.80;70.20
11647;DHT22;5880;52.342;9.662;2022-09-29T09:40:16;14.90;70.40
11647;DHT22;5880;52.342;9.662;2022-09-29T09:43:10;15.00;70.40
11647;DHT22;5880;52.342;9.662;2022-09-29T09:46:07;15.10;70.40
11647;DHT22;5880;52.342;9.662;2022-09-29T09:48:45;15.30;71.30
11647;DHT22;5880;52.342;9.662;2022-09-29T09:51:40;15.40;72.20
11647;DHT22;5880;52.342;9.662;2022-09-29T10:00:22;16.30;72.70
11647;DHT22;5880;52.342;9.662;2022-09-29T10:02:55;16.70;72.00
11647;DHT22;5880;52.342;9.662;2022-09-29T10:05:33;17.10;73.30
11647;DHT22;5880;52.342;9.662;2022-09-29T10:08:04;17.40;72.40
11647;DHT22;5880;52.342;9.662;2022-09-29T10:10:34;17.70;73.10
11647;DHT22;5880;52.342;9.662;2022-09-29T10:13:10;18.00;72.90
11647;DHT22;5880;52.342;9.662;2022-09-29T10:15:54;18.20;70.80
11647;DHT22;5880;52.342;9.662;2022-09-29T10:18:38;18.50;70.10
11647;DHT22;5880;52.342;9.662;2022-09-29T10:21:22;18.70;68.90
11647;DHT22;5880;52.342;9.662;2022-09-29T10:24:02;18.80;66.10
11647;DHT22;5880;52.342;9.662;2022-09-29T10:26:38;18.80;66.40
11647;DHT22;5880;52.342;9.662;2022-09-29T10:29:44;18.70;64.70
11647;DHT22;5880;52.342;9.662;2022-09-29T10:32:33;18.50;63.40
11647;DHT22;5880;52.342;9.662;2022-09-29T10:35:25;18.30;64.00
11647;DHT22;5880;52.342;9.662;2022-09-29T10:38:02;18.20;64.70
11647;DHT22;5880;52.342;9.662;2022-09-29T10:40:32;18.00;64.70
11647;DHT22;5880;52.342;9.662;2022-09-29T10:43:21;17.90;65.70
11647;DHT22;5880;52.342;9.662;2022-09-29T10:45:49;17.90;64.40
11647;DHT22;5880;52.342;9.662;2022-09-29T10:48:15;17.80;65.60
11647;DHT22;5880;52.342;9.662;2022-09-29T10:51:02;17.80;65.50
11647;DHT22;5880;52.342;9.662;2022-09-29T10:53:37;17.80;63.50
11647;DHT22;5880;52.342;9.662;2022-09-29T10:58:57;17.70;64.50
11647;DHT22;5880;52.342;9.662;2022-09-29T11:01:28;17.60;64.40
11647;DHT22;5880;52.342;9.662;2022-09-29T11:04:03;17.60;64.50
11647;DHT22;5880;52.342;9.662;2022-09-29T11:06:39;17.60;64.40
11647;DHT22;5880;52.342;9.662;2022-09-29T11:17:26;17.40;63.80
11647;DHT22;5880;52.342;9.662;2022-09-29T11:19:57;17.40;63.80
11647;DHT22;5880;52.342;9.662;2022-09-29T11:37:09;16.90;63.40
11647;DHT22;5880;52.342;9.662;2022-09-29T11:40:11;16.90;63.80
11647;DHT22;5880;52.342;9.662;2022-09-29T11:48:43;16.70;64.50
11647;DHT22;5880;52.342;9.662;2022-09-29T11:57:38;16.60;63.90
11647;DHT22;5880;52.342;9.662;2022-09-29T12:00:14;16.50;64.30
11647;DHT22;5880;52.342;9.662;2022-09-29T12:11:33;16.40;65.10
11647;DHT22;5880;52.342;9.662;2022-09-29T12:14:10;16.50;64.30
11647;DHT22;5880;52.342;9.662;2022-09-29T12:16:57;16.40;64.60
11647;DHT22;5880;52.342;9.662;2022-09-29T12:19:28;16.40;64.30
11647;DHT22;5880;52.342;9.662;2022-09-29T12:22:00;16.40;64.30
11647;DHT22;5880;52.342;9.662;2022-09-29T12:24:49;16.40;63.90
11647;DHT22;5880;52.342;9.662;2022-09-29T12:27:21;16.40;62.90
11647;DHT22;5880;52.342;9.662;2022-09-29T12:30:24;16.40;64.00
11647;DHT22;5880;52.342;9.662;2022-09-29T12:38:59;16.40;63.70
11647;DHT22;5880;52.342;9.662;2022-09-29T12:41:37;16.50;64.50
11647;DHT22;5880;52.342;9.662;2022-09-29T12:44:24;16.50;64.20
11647;DHT22;5880;52.342;9.662;2022-09-29T12:47:12;16.50;63.20
11647;DHT22;5880;52.342;9.662;2022-09-29T12:53:02;16.60;62.60
11647;DHT22;5880;52.342;9.662;2022-09-29T12:58:19;16.60;62.40
11647;DHT22;5880;52.342;9.662;2022-09-29T13:01:11;16.60;62.80
11647;DHT22;5880;52.342;9.662;2022-09-29T13:06:48;16.70;62.60
11647;DHT22;5880;52.342;9.662;2022-09-29T13:12:54;16.60;62.60
11647;DHT22;5880;52.342;9.662;2022-09-29T13:16:03;16.60;63.20
11647;DHT22;5880;52.342;9.662;2022-09-29T13:24:53;16.60;63.60
11647;DHT22;5880;52.342;9.662;2022-09-29T13:27:44;16.70;62.60
11647;DHT22;5880;52.342;9.662;2022-09-29T13:30:24;16.70;63.30
11647;DHT22;5880;52.342;9.662;2022-09-29T13:32:59;16.70;62.60
11647;DHT22;5880;52.342;9.662;2022-09-29T13:35:38;16.70;63.20
11647;DHT22;5880;52.342;9.662;2022-09-29T13:38:12;16.70;62.60
11647;DHT22;5880;52.342;9.662;2022-09-29T13:54:37;16.80;62.50
11647;DHT22;5880;52.342;9.662;2022-09-29T14:19:01;17.00;61.90
11647;DHT22;5880;52.342;9.662;2022-09-29T14:21:50;17.10;62.40
11647;DHT22;5880;52.342;9.662;2022-09-29T14:32:46;17.30;63.40
11647;DHT22;5880;52.342;9.662;2022-09-29T14:35:28;17.50;62.30
11647;DHT22;5880;52.342;9.662;2022-09-29T14:41:18;17.50;62.90
11647;DHT22;5880;52.342;9.662;2022-09-29T14:43:57;17.60;61.80
11647;DHT22;5880;52.342;9.662;2022-09-29T14:49:53;17.70;62.10
11647;DHT22;5880;52.342;9.662;2022-09-29T14:55:49;17.70;60.90
11647;DHT22;5880;52.342;9.662;2022-09-29T15:04:05;17.80;61.60
11647;DHT22;5880;52.342;9.662;2022-09-29T15:06:48;17.70;60.30
11647;DHT22;5880;52.342;9.662;2022-09-29T15:09:18;17.40;60.30
11647;DHT22;5880;52.342;9.662;2022-09-29T15:11:56;17.60;60.90
11647;DHT22;5880;52.342;9.662;2022-09-29T15:14:32;17.60;59.90
11647;DHT22;5880;52.342;9.662;2022-09-29T15:18:09;17.50;60.60
11647;DHT22;5880;52.342;9.662;2022-09-29T15:23:21;17.50;61.30
11647;DHT22;5880;52.342;9.662;2022-09-29T15:25:54;17.50;59.50
11647;DHT22;5880;52.342;9.662;2022-09-29T15:28:34;17.50;60.60
11647;DHT22;5880;52.342;9.662;2022-09-29T15:31:05;17.40;60.00
11647;DHT22;5880;52.342;9.662;2022-09-29T15:33:38;17.40;60.40
11647;DHT22;5880;52.342;9.662;2022-09-29T15:36:20;17.40;59.80
11647;DHT22;5880;52.342;9.662;2022-09-29T15:39:03;17.30;59.40
11647;DHT22;5880;52.342;9.662;2022-09-29T15:41:32;17.30;59.60
11647;DHT22;5880;52.342;9.662;2022-09-29T15:44:01;17.30;60.10
11647;DHT22;5880;52.342;9.662;2022-09-29T15:46:45;17.30;59.60
11647;DHT22;5880;52.342;9.662;2022-09-29T15:49:17;17.20;59.60
11647;DHT22;5880;52.342;9.662;2022-09-29T15:51:59;17.10;59.80
11647;DHT22;5880;52.342;9.662;2022-09-29T15:54:38;17.10;59.50
11647;DHT22;5880;52.342;9.662;2022-09-29T15:57:28;17.10;59.70
11647;DHT22;5880;52.342;9.662;2022-09-29T16:02:49;17.00;60.30
11647;DHT22;5880;52.342;9.662;2022-09-29T16:05:19;17.00;60.50
11647;DHT22;5880;52.342;9.662;2022-09-29T16:08:35;16.90;60.40
11647;DHT22;5880;52.342;9.662;2022-09-29T16:11:06;16.90;60.40
11647;DHT22;5880;52.342;9.662;2022-09-29T16:13:39;16.90;60.60
11647;DHT22;5880;52.342;9.662;2022-09-29T16:16:11;16.80;61.00
11647;DHT22;5880;52.342;9.662;2022-09-29T16:18:43;16.80;61.00
11647;DHT22;5880;52.342;9.662;2022-09-29T16:21:16;16.70;61.10
11647;DHT22;5880;52.342;9.662;2022-09-29T16:23:59;16.80;61.20
11647;DHT22;5880;52.342;9.662;2022-09-29T16:31:42;16.40;61.50
11647;DHT22;5880;52.342;9.662;2022-09-29T16:37:13;16.50;61.60
11647;DHT22;5880;52.342;9.662;2022-09-29T16:39:46;16.40;61.40
11647;DHT22;5880;52.342;9.662;2022-09-29T16:42:18;16.40;61.60
11647;DHT22;5880;52.342;9.662;2022-09-29T16:44:47;16.30;61.70
11647;DHT22;5880;52.342;9.662;2022-09-29T16:47:18;16.30;61.70
11647;DHT22;5880;52.342;9.662;2022-09-29T16:50:01;16.20;61.70
11647;DHT22;5880;52.342;9.662;2022-09-29T16:52:42;16.20;61.90
11647;DHT22;5880;52.342;9.662;2022-09-29T16:55:17;16.20;62.00
11647;DHT22;5880;52.342;9.662;2022-09-29T17:00:38;16.00;62.10
11647;DHT22;5880;52.342;9.662;2022-09-29T17:03:05;16.00;62.10
11647;DHT22;5880;52.342;9.662;2022-09-29T17:05:37;15.90;62.20
11647;DHT22;5880;52.342;9.662;2022-09-29T17:08:14;15.80;62.30
11647;DHT22;5880;52.342;9.662;2022-09-29T17:10:50;15.80;62.30
11647;DHT22;5880;52.342;9.662;2022-09-29T17:13:17;15.70;62.30
11647;DHT22;5880;52.342;9.662;2022-09-29T17:15:46;15.70;62.40
11647;DHT22;5880;52.342;9.662;2022-09-29T17:18:16;15.70;62.50
11647;DHT22;5880;52.342;9.662;2022-09-29T17:20:44;15.60;62.50
11647;DHT22;5880;52.342;9.662;2022-09-29T17:23:10;15.60;62.60
11647;DHT22;5880;52.342;9.662;2022-09-29T17:25:37;15.50;62.60
11647;DHT22;5880;52.342;9.662;2022-09-29T17:28:17;15.40;62.60
11647;DHT22;5880;52.342;9.662;2022-09-29T17:30:49;15.60;63.00
11647;DHT22;5880;52.342;9.662;2022-09-29T17:33:17;15.30;62.60
11647;DHT22;5880;52.342;9.662;2022-09-29T17:35:52;15.30;62.80
11647;DHT22;5880;52.342;9.662;2022-09-29T17:38:18;15.20;62.70
11647;DHT22;5880;52.342;9.662;2022-09-29T17:40:49;15.10;62.70
11647;DHT22;5880;52.342;9.662;2022-09-29T17:43:18;14.80;62.50
11647;DHT22;5880;52.342;9.662;2022-09-29T17:45:44;15.00;62.60
11647;DHT22;5880;52.342;9.662;2022-09-29T17:48:11;15.00;62.80
11647;DHT22;5880;52.342;9.662;2022-09-29T17:50:48;14.90;62.90
11647;DHT22;5880;52.342;9.662;2022-09-29T17:53:15;14.90;63.00
11647;DHT22;5880;52.342;9.662;2022-09-29T17:55:45;14.80;62.90
11647;DHT22;5880;52.342;9.662;2022-09-29T17:58:15;14.80;63.00
11647;DHT22;5880;52.342;9.662;2022-09-29T18:00:45;14.70;63.00
11647;DHT22;5880;52.342;9.662;2022-09-29T18:03:14;14.70;63.10
11647;DHT22;5880;52.342;9.662;2022-09-29T18:05:43;14.60;63.00
11647;DHT22;5880;52.342;9.662;2022-09-29T18:08:16;14.60;63.10
11647;DHT22;5880;52.342;9.662;2022-09-29T18:10:44;14.50;63.30
11647;DHT22;5880;52.342;9.662;2022-09-29T18:13:19;14.40;63.00
11647;DHT22;5880;52.342;9.662;2022-09-29T18:15:46;14.40;63.10
11647;DHT22;5880;52.342;9.662;2022-09-29T18:18:15;14.50;63.30
11647;DHT22;5880;52.342;9.662;2022-09-29T18:20:43;14.30;63.30
11647;DHT22;5880;52.342;9.662;2022-09-29T18:23:11;14.30;63.30
11647;DHT22;5880;52.342;9.662;2022-09-29T18:25:41;14.20;63.30
11647;DHT22;5880;52.342;9.662;2022-09-29T18:28:10;14.20;63.50
11647;DHT22;5880;52.342;9.662;2022-09-29T18:30:37;14.20;63.50
11647;DHT22;5880;52.342;9.662;2022-09-29T18:33:12;14.10;63.50
11647;DHT22;5880;52.342;9.662;2022-09-29T18:35:43;14.20;63.60
11647;DHT22;5880;52.342;9.662;2022-09-29T18:38:11;14.10;63.50
11647;DHT22;5880;52.342;9.662;2022-09-29T18:40:38;14.00;63.50
11647;DHT22;5880;52.342;9.662;2022-09-29T18:43:04;14.00;63.60
11647;DHT22;5880;52.342;9.662;2022-09-29T18:45:34;13.90;63.70
11647;DHT22;5880;52.342;9.662;2022-09-29T18:48:05;13.90;63.80
11647;DHT22;5880;52.342;9.662;2022-09-29T18:50:45;13.80;63.80
11647;DHT22;5880;52.342;9.662;2022-09-29T18:53:15;13.80;63.90
11647;DHT22;5880;52.342;9.662;2022-09-29T18:55:44;13.80;63.80
11647;DHT22;5880;52.342;9.662;2022-09-29T18:58:15;13.70;63.70
11647;DHT22;5880;52.342;9.662;2022-09-29T19:00:48;13.70;64.00
11647;DHT22;5880;52.342;9.662;2022-09-29T19:03:19;13.70;64.10
11647;DHT22;5880;52.342;9.662;2022-09-29T19:05:46;13.60;63.90
11647;DHT22;5880;52.342;9.662;2022-09-29T19:08:13;13.60;63.90
11647;DHT22;5880;52.342;9.662;2022-09-29T19:10:45;13.60;63.90
11647;DHT22;5880;52.342;9.662;2022-09-29T19:13:13;13.60;63.80
11647;DHT22;5880;52.342;9.662;2022-09-29T19:15:40;13.50;63.90
11647;DHT22;5880;52.342;9.662;2022-09-29T19:18:08;13.50;63.90
11647;DHT22;5880;52.342;9.662;2022-09-29T19:20:38;13.50;64.00
11647;DHT22;5880;52.342;9.662;2022-09-29T19:23:04;13.40;63.80
11647;DHT22;5880;52.342;9.662;2022-09-29T19:25:33;13.40;63.80
11647;DHT22;5880;52.342;9.662;2022-09-29T19:28:02;13.40;64.10
11647;DHT22;5880;52.342;9.662;2022-09-29T19:30:35;13.30;64.00
11647;DHT22;5880;52.342;9.662;2022-09-29T19:33:03;13.30;64.10
11647;DHT22;5880;52.342;9.662;2022-09-29T19:35:33;13.30;64.20
11647;DHT22;5880;52.342;9.662;2022-09-29T19:38:00;13.20;64.30
11647;DHT22;5880;52.342;9.662;2022-09-29T19:40:29;13.30;64.50